Time;durP1;ratioP1;P1;durP2;ratioP2;P2;SDS_P1;SDS_P2;PMS_P1;PMS_P2;Temp;Humidity;BMP_temperature;BMP_pressure;BME280_temperature;BME280_humidity;BME280_pressure;Samples;Min_cycle;Max_cycle;Signal;HPM_P1;HPM_P2
2022/02/09 00:00:42;;;;;;;11.45;8.52;;;;;;;-0.03;71.54;94110.75;2051622;70;20174;-72
2022/02/09 00:05:53;;;;;;;10.57;7.28;;;;;;;-0.37;74.14;94119.09;2051524;70;20130;-72
2022/02/09 00:08:21;;;;;;;9.85;5.88;;;;;;;-0.18;72.96;94118.56;2051653;70;20493;-73
2022/02/09 00:10:49;;;;;;;10.65;5.82;;;;;;;-0.10;72.19;94114.75;2051686;70;20133;-71
2022/02/09 00:18:58;;;;;;;10.32;6.00;;;;;;;-0.18;72.52;94113.03;2051455;70;20197;-71
2022/02/09 00:29:46;;;;;;;10.25;6.70;;;;;;;-0.21;72.20;94123.09;2051409;70;20133;-69
2022/02/09 00:32:10;;;;;;;12.60;6.93;;;;;;;-0.33;72.09;94119.59;2051240;70;20201;-75
2022/02/09 01:55:52;;;;;;;6.65;4.60;;;;;;;-0.95;72.49;94099.53;2051842;70;20145;-71
2022/02/09 01:58:20;;;;;;;6.85;4.45;;;;;;;-0.90;72.08;94084.19;2051997;70;20153;-71
2022/02/09 02:00:46;;;;;;;9.55;4.88;;;;;;;-0.94;72.15;94092.72;2048438;70;20166;-69
2022/02/09 02:03:12;;;;;;;9.25;4.85;;;;;;;-0.77;72.14;94095.50;2051522;70;20307;-69
2022/02/09 02:05:38;;;;;;;7.47;4.47;;;;;;;-0.90;72.58;94090.47;2053712;70;20151;-70
2022/02/09 02:08:06;;;;;;;8.77;5.20;;;;;;;-0.82;72.25;94087.97;2051653;70;20154;-70
2022/02/09 02:10:52;;;;;;;10.73;6.72;;;;;;;-1.01;72.19;94084.94;2050998;70;20686;-72
2022/02/09 02:13:50;;;;;;;9.52;6.40;;;;;;;-1.00;72.00;94094.75;2051611;70;20642;-69
2022/02/09 02:19:47;;;;;;;7.72;5.03;;;;;;;-0.96;71.90;94089.72;2051622;70;20126;-78
2022/02/09 02:25:23;;;;;;;10.18;5.63;;;;;;;-1.07;72.92;94093.22;2051661;70;20249;-77
2022/02/09 02:35:28;;;;;;;12.18;8.48;;;;;;;-1.11;72.80;94083.69;2051619;70;20142;-71
2022/02/09 02:40:38;;;;;;;10.07;6.13;;;;;;;-1.08;71.95;94082.69;2051952;70;20633;-70
2022/02/09 03:17:41;;;;;;;7.63;3.00;;;;;;;-1.09;72.70;94054.28;2051652;70;20222;-69
2022/02/09 03:20:46;;;;;;;8.15;3.83;;;;;;;-1.54;74.23;94056.25;2048169;70;20138;-70
2022/02/09 03:23:15;;;;;;;6.00;3.70;;;;;;;-1.36;73.29;94055.78;2051098;70;20221;-70
2022/02/09 03:31:30;;;;;;;7.82;4.35;;;;;;;-1.48;72.70;94059.75;2051677;70;20134;-70
2022/02/09 03:54:59;;;;;;;5.82;3.58;;;;;;;-1.48;72.39;94057.00;2051888;70;20170;-70
2022/02/09 03:57:31;;;;;;;7.18;3.60;;;;;;;-1.47;71.94;94055.75;2051826;70;20150;-72
2022/02/09 03:59:59;;;;;;;6.95;3.47;;;;;;;-1.45;72.01;94058.78;2051733;70;20162;-70
2022/02/09 04:02:26;;;;;;;6.45;3.55;;;;;;;-1.54;72.36;94054.25;2053804;70;20138;-70
2022/02/09 04:04:56;;;;;;;8.52;3.80;;;;;;;-1.55;71.88;94055.50;2051726;70;20173;-70
2022/02/09 04:07:22;;;;;;;7.85;4.22;;;;;;;-1.55;72.08;94052.72;2051742;70;20130;-71
2022/02/09 04:09:51;;;;;;;6.25;3.30;;;;;;;-1.44;72.35;94046.47;2051695;70;20169;-75
2022/02/09 04:12:47;;;;;;;8.18;3.72;;;;;;;-1.30;71.36;94047.47;2051910;70;20632;-76
2022/02/09 04:15:27;;;;;;;5.97;3.78;;;;;;;-1.79;72.84;94044.13;2051591;70;20130;-76
2022/02/09 04:22:20;;;;;;;8.90;5.10;;;;;;;-1.68;72.35;94040.66;2051649;70;20134;-76
2022/02/09 04:36:59;;;;;;;8.70;4.78;;;;;;;-1.77;73.79;94035.38;2051851;70;20178;-69
2022/02/09 04:39:29;;;;;;;5.20;3.42;;;;;;;-1.69;74.15;94033.63;2053867;70;20142;-70
2022/02/09 04:42:19;;;;;;;11.23;5.05;;;;;;;-1.95;75.35;94036.56;2051660;70;20159;-69
2022/02/09 05:24:15;;;;;;;15.38;8.20;;;;;;;-1.86;71.60;94005.97;2052131;70;20142;-70
2022/02/09 05:26:42;;;;;;;11.73;7.13;;;;;;;-1.90;71.74;94008.97;2051987;70;20168;-72
2022/02/09 05:29:08;;;;;;;13.15;6.57;;;;;;;-1.87;71.24;94007.97;2054496;70;20229;-70
2022/02/09 05:31:35;;;;;;;12.48;5.90;;;;;;;-1.88;72.28;94003.72;2051476;70;20149;-75
2022/02/09 05:34:01;;;;;;;12.85;6.80;;;;;;;-2.01;71.68;93999.94;2052009;70;20135;-73
2022/02/09 05:36:27;;;;;;;13.23;6.88;;;;;;;-1.99;71.66;94000.16;2052189;70;20143;-74
2022/02/09 05:38:53;;;;;;;12.80;6.15;;;;;;;-1.96;71.59;94002.69;2052034;70;20601;-78
2022/02/09 05:41:18;;;;;;;16.55;6.40;;;;;;;-1.89;71.47;94006.97;2052119;70;20249;-74
2022/02/09 05:43:44;;;;;;;12.15;6.93;;;;;;;-1.83;71.60;93997.47;2052125;70;20153;-73
2022/02/09 05:46:38;;;;;;;13.25;5.93;;;;;;;-1.75;72.33;94008.00;2052177;70;20602;-75
2022/02/09 05:51:53;;;;;;;15.15;6.07;;;;;;;-1.82;71.64;94006.50;2052128;70;20205;-73
2022/02/09 05:56:48;;;;;;;11.20;5.03;;;;;;;-1.82;71.13;94012.75;2051984;70;20177;-73
2022/02/09 06:01:49;;;;;;;10.73;5.20;;;;;;;-1.81;71.85;93999.72;2051884;70;20173;-77
2022/02/09 06:04:15;;;;;;;8.48;4.32;;;;;;;-1.80;71.30;94001.97;2051940;70;20146;-76
2022/02/09 06:06:42;;;;;;;10.00;4.90;;;;;;;-1.71;72.05;94002.97;2052032;70;20174;-75
2022/02/09 06:09:08;;;;;;;15.27;5.53;;;;;;;-1.91;72.64;93998.44;2054338;69;20596;-70
2022/02/09 06:12:24;;;;;;;9.88;4.78;;;;;;;-2.21;73.78;94001.59;2052083;70;20134;-71
2022/02/09 06:19:53;;;;;;;71.97;28.70;;;;;;;-1.82;72.45;93993.44;2052031;70;20228;-74
2022/02/09 06:22:21;;;;;;;41.88;17.98;;;;;;;-1.96;73.09;93990.91;2052128;70;20576;-70
2022/02/09 06:24:47;;;;;;;25.65;13.82;;;;;;;-1.92;73.84;94000.44;2051940;70;20154;-70
2022/02/09 06:27:13;;;;;;;26.50;13.63;;;;;;;-1.86;72.63;94003.97;2052214;70;20153;-70
2022/02/09 06:29:45;;;;;;;37.28;18.65;;;;;;;-1.87;72.51;94005.22;2052143;70;20149;-72
2022/02/09 06:32:11;;;;;;;29.05;16.55;;;;;;;-1.84;71.97;93997.94;2051739;70;20165;-70
2022/02/09 06:34:37;;;;;;;26.65;13.23;;;;;;;-1.85;71.94;94002.72;2048698;70;20142;-78
2022/02/09 06:39:39;;;;;;;24.10;12.70;;;;;;;-1.85;72.07;93999.19;2051956;70;20174;-77
2022/02/09 06:42:05;;;;;;;23.17;12.45;;;;;;;-1.80;71.90;93999.19;2051998;70;20311;-79
2022/02/09 06:44:32;;;;;;;25.52;14.50;;;;;;;-1.90;71.66;93995.16;2051940;70;20142;-74
2022/02/09 06:46:58;;;;;;;26.92;15.52;;;;;;;-1.98;72.05;94004.44;2051891;70;20204;-79
2022/02/09 06:49:24;;;;;;;28.60;14.30;;;;;;;-1.85;71.91;94005.47;2051972;70;20162;-80
2022/02/09 06:51:49;;;;;;;19.85;11.25;;;;;;;-1.77;72.05;94002.22;2048650;70;20171;-74
2022/02/09 06:54:30;;;;;;;17.95;9.30;;;;;;;-1.67;71.43;94000.72;2051944;70;20138;-73
2022/02/09 06:57:09;;;;;;;197.65;63.05;;;;;;;-1.75;72.20;94002.47;2051924;70;20165;-72
2022/02/09 06:59:38;;;;;;;64.82;28.80;;;;;;;-1.78;72.31;94007.00;2051845;70;20180;-77
2022/02/09 07:02:05;;;;;;;53.88;23.50;;;;;;;-1.96;72.80;94008.22;2051775;70;20161;-76
2022/02/09 07:04:33;;;;;;;51.80;21.73;;;;;;;-1.69;72.00;94008.78;2051815;70;20533;-75
2022/02/09 07:06:59;;;;;;;38.40;18.52;;;;;;;-1.80;72.52;94015.00;2051896;70;20229;-70
2022/02/09 07:09:27;;;;;;;39.92;20.60;;;;;;;-1.97;73.27;94014.22;2051904;70;20290;-70
2022/02/09 07:11:53;;;;;;;39.92;18.73;;;;;;;-2.06;72.49;94009.69;2051902;70;20681;-74
2022/02/09 07:14:27;;;;;;;39.60;20.00;;;;;;;-2.08;72.48;94007.41;2051800;70;20162;-73
2022/02/09 07:16:55;;;;;;;45.85;22.00;;;;;;;-2.17;73.18;94006.88;2051798;70;20203;-72
2022/02/09 07:19:21;;;;;;;49.10;25.25;;;;;;;-1.96;72.41;94012.97;2051795;70;20563;-74
2022/02/09 07:21:47;;;;;;;80.22;39.90;;;;;;;-1.89;72.14;94012.47;2051762;70;20227;-73
2022/02/09 07:24:17;;;;;;;68.22;35.83;;;;;;;-2.14;73.56;94011.41;2053966;70;20517;-76
2022/02/09 07:29:09;;;;;;;48.13;24.98;;;;;;;-1.83;73.30;93999.47;2051891;70;20142;-71
2022/02/09 07:31:35;;;;;;;58.40;30.17;;;;;;;-1.83;73.40;94005.00;2051883;70;20161;-72
2022/02/09 07:34:01;;;;;;;59.13;28.63;;;;;;;-1.78;72.45;94014.53;2051805;70;20135;-76
2022/02/09 07:36:31;;;;;;;44.55;23.65;;;;;;;-1.68;72.20;94008.28;2051942;70;20155;-75
2022/02/09 07:38:59;;;;;;;36.67;19.38;;;;;;;-1.58;71.28;94003.25;2052018;70;20178;-76
2022/02/09 07:41:25;;;;;;;44.85;24.33;;;;;;;-1.67;72.81;94007.00;2051781;70;20341;-74
2022/02/09 07:44:05;;;;;;;50.30;24.65;;;;;;;-1.88;73.35;94009.25;2051530;70;20267;-72
2022/02/09 07:49:37;;;;;;;46.80;24.65;;;;;;;-1.76;72.88;94006.50;2051922;70;20134;-74
2022/02/09 07:52:07;;;;;;;49.47;24.65;;;;;;;-1.67;72.24;93997.97;2051740;70;20570;-75
2022/02/09 07:54:33;;;;;;;45.70;24.45;;;;;;;-1.79;72.73;94005.47;2051736;70;20150;-72
2022/02/09 07:56:58;;;;;;;42.75;23.15;;;;;;;-1.73;72.57;94009.00;2051205;70;20169;-74
2022/02/09 07:59:24;;;;;;;42.13;21.63;;;;;;;-1.63;71.97;94004.00;2051729;70;20138;-75
2022/02/09 08:01:51;;;;;;;38.72;22.02;;;;;;;-1.50;71.65;93998.00;2051696;70;20157;-77
2022/02/09 08:04:18;;;;;;;43.38;21.80;;;;;;;-1.64;72.32;94002.50;2051692;70;20138;-75
2022/02/09 08:06:45;;;;;;;43.40;21.60;;;;;;;-1.61;72.22;93982.91;2051671;70;20175;-72
2022/02/09 08:09:19;;;;;;;83.50;44.92;;;;;;;-1.71;72.84;93986.41;2051665;70;20173;-74
2022/02/09 08:33:06;;;;;;;38.80;21.65;;;;;;;-1.17;71.23;93972.38;2053732;70;20606;-74
2022/02/09 08:35:34;;;;;;;35.10;19.58;;;;;;;-1.24;72.43;93959.81;2051637;70;20134;-75
2022/02/09 08:38:00;;;;;;;46.63;25.17;;;;;;;-0.89;72.22;93959.25;2051592;70;20244;-78
2022/02/09 08:40:28;;;;;;;42.97;24.58;;;;;;;-0.43;72.17;93955.09;2051609;70;20165;-74
2022/02/09 08:42:54;;;;;;;49.38;27.13;;;;;;;0.09;73.90;93957.13;2051748;70;20154;-72
2022/02/09 08:45:20;;;;;;;46.58;24.98;;;;;;;0.41;73.40;93946.34;2051540;70;20229;-75
2022/02/09 08:47:47;;;;;;;47.58;25.17;;;;;;;0.75;74.40;93941.28;2051534;70;20150;-75
2022/02/09 08:50:14;;;;;;;50.17;25.55;;;;;;;0.98;71.93;93944.63;2048322;70;20222;-77
2022/02/09 08:52:40;;;;;;;44.50;24.35;;;;;;;1.47;70.88;93952.22;2051568;70;20144;-76
2022/02/09 08:55:07;;;;;;;49.60;24.45;;;;;;;1.50;70.22;93940.78;2048478;70;20260;-73
2022/02/09 08:57:34;;;;;;;58.25;28.15;;;;;;;1.80;70.02;93947.53;2052119;70;20162;-75
2022/02/09 09:00:07;;;;;;;53.47;25.92;;;;;;;2.25;69.59;93945.69;2052033;70;20274;-74
2022/02/09 09:02:34;;;;;;;49.75;23.35;;;;;;;2.65;66.81;93942.31;2054260;70;20142;-76
2022/02/09 09:05:12;;;;;;;38.00;19.85;;;;;;;2.60;66.83;93945.94;2048837;70;20188;-75
2022/02/09 09:07:39;;;;;;;42.22;20.15;;;;;;;3.17;65.94;93946.53;2052087;70;20153;-76
2022/02/09 09:10:15;;;;;;;32.42;18.23;;;;;;;3.50;65.34;93943.13;2054362;69;20123;-76
2022/02/09 09:41:06;;;;;;;18.95;8.30;;;;;;;6.66;53.84;93936.91;2051965;70;20744;-75
2022/02/09 10:34:13;;;;;;;5.60;3.28;;;;;;;12.54;40.51;93893.78;2052019;70;20147;-74
2022/02/09 10:37:05;;;;;;;14.00;3.45;;;;;;;11.48;39.85;93886.66;2051513;70;20154;-74
2022/02/09 10:42:22;;;;;;;6.30;2.80;;;;;;;12.60;39.25;93885.75;2051847;70;20619;-76
2022/02/09 10:44:52;;;;;;;5.07;2.42;;;;;;;12.13;39.16;93883.09;2051856;70;20162;-74
2022/02/09 10:47:27;;;;;;;22.63;3.10;;;;;;;13.64;39.11;93879.63;2051757;70;20194;-74
2022/02/09 10:50:27;;;;;;;9.52;2.70;;;;;;;13.92;36.50;93882.91;2051827;70;20138;-74
2022/02/09 10:52:54;;;;;;;6.95;2.42;;;;;;;13.14;37.42;93874.75;2051901;70;20169;-76
2022/02/09 10:55:34;;;;;;;4.43;2.55;;;;;;;14.01;37.21;93853.06;2051841;70;20609;-76
2022/02/09 10:58:02;;;;;;;4.78;2.55;;;;;;;13.85;34.61;93864.03;2051859;70;20221;-76
2022/02/09 11:00:28;;;;;;;3.88;2.50;;;;;;;14.76;35.34;93863.66;2051812;70;20158;-74
2022/02/09 11:02:54;;;;;;;3.80;2.63;;;;;;;14.83;33.34;93851.31;2051675;70;20154;-73
2022/02/09 11:05:20;;;;;;;5.60;3.40;;;;;;;14.29;34.55;93862.69;2051906;70;20157;-72
2022/02/09 11:07:54;;;;;;;5.20;3.38;;;;;;;16.27;35.70;93850.13;2051307;70;20143;-75
2022/02/09 11:10:21;;;;;;;5.07;2.97;;;;;;;17.13;33.64;93852.09;2051952;70;20620;-72
2022/02/09 11:12:48;;;;;;;16.67;3.92;;;;;;;16.51;33.31;93853.59;2051816;70;20562;-72
2022/02/09 11:15:18;;;;;;;8.02;3.40;;;;;;;17.76;32.38;93846.94;2051833;70;20184;-73
2022/02/09 11:17:48;;;;;;;13.75;2.60;;;;;;;18.52;30.14;93843.69;2051676;70;20154;-72
2022/02/09 11:20:20;;;;;;;5.72;3.60;;;;;;;17.60;28.40;93840.38;2048533;70;20233;-72
2022/02/09 11:22:47;;;;;;;4.15;2.45;;;;;;;19.87;28.35;93835.00;2051409;70;20233;-72
2022/02/09 11:25:18;;;;;;;3.72;2.50;;;;;;;20.34;27.01;93834.16;2048487;70;20157;-75
2022/02/09 11:27:51;;;;;;;3.08;2.25;;;;;;;22.94;25.24;93839.72;2051904;70;20590;-74
2022/02/09 11:30:32;;;;;;;3.30;2.38;;;;;;;23.34;25.63;93838.16;2051787;70;20150;-74
2022/02/09 11:33:25;;;;;;;11.70;2.63;;;;;;;23.15;24.56;93833.22;2051652;70;20143;-75
2022/02/09 11:36:26;;;;;;;3.28;2.50;;;;;;;23.13;24.32;93836.03;2051776;70;20150;-73
2022/02/09 11:38:57;;;;;;;4.00;2.53;;;;;;;21.82;23.48;93816.47;2051755;70;20181;-73
2022/02/09 11:41:35;;;;;;;3.40;2.28;;;;;;;22.74;23.02;93822.53;2053899;70;20158;-73
2022/02/09 11:44:10;;;;;;;6.65;3.15;;;;;;;23.16;22.89;93819.59;2051768;70;20249;-73
2022/02/09 11:46:54;;;;;;;3.78;2.30;;;;;;;24.29;23.04;93810.00;2053819;70;20159;-73
2022/02/09 12:09:45;;;;;;;3.30;2.10;;;;;;;26.63;21.17;93803.13;2051870;70;20586;-74
2022/02/09 12:12:16;;;;;;;3.63;2.17;;;;;;;27.64;18.78;93779.44;2051151;69;20245;-74
2022/02/09 12:20:20;;;;;;;3.17;1.60;;;;;;;26.74;19.29;93780.91;2051753;70;20602;-76
2022/02/09 12:23:03;;;;;;;1.92;1.10;;;;;;;23.78;22.81;93771.94;2051168;70;20150;-73
2022/02/09 12:25:43;;;;;;;3.72;0.98;;;;;;;25.96;20.94;93765.00;2048856;70;20173;-76
2022/02/09 12:28:26;;;;;;;1.30;1.20;;;;;;;25.86;20.68;93761.94;2051584;70;20158;-77
2022/02/09 12:31:09;;;;;;;3.80;1.50;;;;;;;26.21;20.76;93763.34;2052466;70;20145;-76
2022/02/09 12:33:41;;;;;;;3.35;2.17;;;;;;;27.06;20.39;93755.44;2052612;70;20143;-74
2022/02/09 12:36:11;;;;;;;2.05;1.70;;;;;;;28.22;19.19;93753.41;2052705;70;20641;-75
2022/02/09 12:38:36;;;;;;;2.42;1.90;;;;;;;27.23;19.43;93742.00;2052875;70;20537;-74
2022/02/09 12:41:09;;;;;;;4.30;3.47;;;;;;;27.13;20.06;93738.25;2052767;70;20242;-73
2022/02/09 12:43:56;;;;;;;6.35;4.10;;;;;;;27.22;19.83;93739.81;2052660;70;20608;-73
2022/02/09 12:46:32;;;;;;;4.60;2.88;;;;;;;24.83;21.26;93738.72;2052726;70;20126;-73
2022/02/09 12:49:10;;;;;;;5.25;2.30;;;;;;;23.71;21.92;93724.28;2052686;70;20165;-73
2022/02/09 12:51:37;;;;;;;3.25;1.77;;;;;;;23.03;22.78;93720.84;2049348;70;20157;-76
2022/02/09 12:54:03;;;;;;;6.35;4.40;;;;;;;18.93;26.03;93714.44;2054813;69;20142;-75
2022/02/09 12:56:32;;;;;;;5.00;2.80;;;;;;;18.82;26.81;93715.34;2052641;70;20229;-73
2022/02/09 12:59:07;;;;;;;7.95;3.67;;;;;;;15.97;30.13;93721.25;2052557;70;20190;-76
2022/02/09 13:01:53;;;;;;;7.63;4.03;;;;;;;16.84;28.50;93716.13;2052457;70;20209;-73
2022/02/09 13:04:39;;;;;;;6.40;3.70;;;;;;;16.25;31.62;93713.59;2052662;70;20194;-74
2022/02/09 13:07:14;;;;;;;6.93;3.70;;;;;;;15.13;31.01;93695.78;2052667;70;20240;-74
2022/02/09 13:09:46;;;;;;;7.72;5.35;;;;;;;14.87;32.23;93697.75;2052117;70;20157;-72
2022/02/09 13:12:12;;;;;;;10.95;5.55;;;;;;;14.34;33.12;93683.91;2052616;70;20142;-74
2022/02/09 13:14:44;;;;;;;8.55;4.88;;;;;;;11.91;36.62;93683.91;2052622;70;20176;-73
2022/02/09 14:13:24;;;;;;;23.20;11.57;;;;;;;7.43;47.34;93666.00;2047671;70;20261;-72
2022/02/09 14:16:24;;;;;;;20.48;10.65;;;;;;;7.36;46.72;93650.69;2047845;70;20618;-71
2022/02/09 14:47:17;;;;;;;24.75;12.68;;;;;;;6.40;50.36;93647.03;2050031;70;20254;-74
2022/02/09 14:49:37;;;;;;;17.58;11.90;;;;;;;6.59;50.32;93659.31;2045321;70;20653;-73
2022/02/09 14:57:15;;;;;;;24.80;13.50;;;;;;;5.75;52.64;93675.31;2040461;70;20519;-74
2022/02/09 15:02:13;;;;;;;23.27;10.50;;;;;;;5.76;52.59;93669.16;2047996;70;20150;-71
2022/02/09 15:05:28;;;;;;;21.17;12.50;;;;;;;6.11;52.53;93658.44;2048427;70;20147;-70
2022/02/09 15:07:36;;;;;;;29.80;12.50;;;;;;;5.83;53.02;93670.50;2049969;70;20138;-72
2022/02/09 15:10:29;;;;;;;33.05;17.20;;;;;;;5.62;53.15;93667.84;2048244;70;20241;-75
2022/02/09 15:23:23;;;;;;;31.85;14.88;;;;;;;5.58;54.62;93670.25;2047075;70;20681;-74
2022/02/09 15:25:49;;;;;;;32.13;18.63;;;;;;;5.55;53.99;93690.94;2047521;70;20590;-72
2022/02/09 15:28:15;;;;;;;34.05;19.52;;;;;;;5.44;54.56;93686.41;2044685;70;20626;-70
2022/02/09 15:30:50;;;;;;;33.40;19.73;;;;;;;5.31;55.54;93673.34;2047571;70;20217;-71
2022/02/09 15:33:22;;;;;;;34.60;20.13;;;;;;;5.56;55.30;93679.19;2047901;70;20245;-71
2022/02/09 15:35:52;;;;;;;34.55;18.10;;;;;;;5.03;56.18;93684.56;2047901;70;20201;-70
2022/02/09 15:38:23;;;;;;;35.30;20.05;;;;;;;5.17;55.97;93693.56;2050265;70;20239;-71
2022/02/09 15:41:03;;;;;;;35.63;20.60;;;;;;;5.18;54.76;93672.72;2048062;70;20178;-71
2022/02/09 15:59:43;;;;;;;41.08;20.70;;;;;;;4.25;58.87;93699.34;2047840;70;20151;-70
2022/02/09 16:23:58;;;;;;;31.85;18.63;;;;;;;4.38;58.54;93697.78;2048109;70;20189;-72
2022/02/09 16:45:25;;;;;;;33.85;19.35;;;;;;;3.68;60.55;93706.84;2048154;70;20233;-75
2022/02/09 16:48:02;;;;;;;41.88;23.73;;;;;;;3.65;58.81;93708.66;2047812;70;20166;-72
2022/02/09 16:50:37;;;;;;;32.30;17.85;;;;;;;3.52;59.84;93717.06;2047195;70;20134;-71
2022/02/09 16:53:32;;;;;;;88.13;45.65;;;;;;;3.69;60.04;93719.47;2050083;70;20214;-72
2022/02/09 17:21:04;;;;;;;51.45;29.45;;;;;;;3.15;60.33;93740.38;2045803;70;20241;-74
2022/02/09 17:23:30;;;;;;;47.60;24.60;;;;;;;3.00;61.37;93729.81;2050173;70;20162;-71
2022/02/09 17:25:56;;;;;;;53.22;29.85;;;;;;;3.02;62.37;93730.78;2048283;70;20260;-70
2022/02/09 17:28:22;;;;;;;46.33;21.90;;;;;;;2.82;63.02;93739.03;2048017;70;20281;-71
2022/02/09 17:31:02;;;;;;;52.15;27.02;;;;;;;2.98;62.27;93741.47;2047943;70;20226;-71
2022/02/09 17:33:57;;;;;;;55.65;29.55;;;;;;;3.03;62.07;93734.31;2048417;70;20146;-73
2022/02/09 17:55:38;;;;;;;52.53;23.48;;;;;;;2.34;64.63;93752.00;2045221;70;20197;-71
2022/02/09 17:58:07;;;;;;;59.78;24.55;;;;;;;2.37;63.11;93753.75;2049619;70;20146;-75
2022/02/09 18:00:32;;;;;;;63.55;24.02;;;;;;;2.34;62.54;93752.00;2048074;70;20154;-75
2022/02/09 18:02:58;;;;;;;61.10;25.55;;;;;;;2.48;62.81;93750.78;2044701;70;20185;-71
2022/02/09 18:08:00;;;;;;;57.80;26.50;;;;;;;2.29;62.66;93754.38;2047378;70;20135;-72
2022/02/09 18:34:44;;;;;;;50.05;25.95;;;;;;;2.17;63.23;93739.19;2037706;70;20187;-72
2022/02/09 18:42:57;;;;;;;45.28;24.02;;;;;;;2.03;62.68;93737.66;2036962;70;20621;-74
2022/02/09 19:03:38;;;;;;;44.70;21.38;;;;;;;1.74;65.36;93723.47;2048249;70;20187;-70
2022/02/09 19:06:17;;;;;;;39.40;19.60;;;;;;;1.80;63.72;93717.06;2048074;70;20239;-72
2022/02/09 19:14:09;;;;;;;49.25;24.42;;;;;;;1.62;64.01;93718.63;2048105;70;20143;-72
2022/02/09 19:17:01;;;;;;;45.28;24.00;;;;;;;1.42;64.26;93719.91;2050259;70;20182;-72
2022/02/09 19:30:24;;;;;;;65.10;29.80;;;;;;;1.05;67.06;93712.34;2048016;70;20206;-70
2022/02/09 19:51:42;;;;;;;66.68;32.80;;;;;;;1.05;66.80;93702.00;2048113;70;20185;-71
2022/02/09 19:54:38;;;;;;;53.70;26.92;;;;;;;1.30;65.05;93713.78;2049433;70;20238;-72
2022/02/09 19:57:03;;;;;;;51.43;24.60;;;;;;;1.36;64.67;93705.38;2050734;70;20711;-73
2022/02/09 19:59:31;;;;;;;45.90;22.90;;;;;;;1.29;64.48;93697.66;2050701;70;20173;-71
2022/02/09 20:01:57;;;;;;;43.17;22.48;;;;;;;1.19;64.41;93700.81;2051022;70;20154;-74
2022/02/09 20:04:24;;;;;;;49.60;24.98;;;;;;;1.02;65.25;93703.81;2047615;70;20134;-72
2022/02/09 20:06:50;;;;;;;46.38;24.65;;;;;;;0.99;64.97;93701.34;2051107;70;20131;-72
2022/02/09 20:09:18;;;;;;;44.17;23.73;;;;;;;1.10;64.78;93697.66;2051157;70;20150;-70
2022/02/09 20:11:44;;;;;;;45.63;22.40;;;;;;;1.15;64.92;93680.97;2051238;70;20626;-71
2022/02/09 20:14:14;;;;;;;51.22;28.70;;;;;;;1.35;65.26;93681.69;2050856;70;20270;-72
2022/02/09 20:16:40;;;;;;;48.20;24.42;;;;;;;1.12;63.92;93679.22;2051053;70;20155;-71
2022/02/09 20:19:06;;;;;;;39.20;20.35;;;;;;;1.04;65.44;93686.63;2045010;70;20168;-71
2022/02/09 20:21:32;;;;;;;38.45;20.73;;;;;;;1.19;64.17;93684.19;2051186;70;20145;-72
2022/02/09 20:24:01;;;;;;;27.13;14.38;;;;;;;1.27;64.54;93678.75;2051024;70;20138;-73
2022/02/09 20:26:27;;;;;;;27.48;15.93;;;;;;;1.03;65.79;93682.38;2047810;70;20264;-71
2022/02/09 20:29:06;;;;;;;39.67;20.77;;;;;;;1.04;66.76;93683.13;2050934;70;20150;-71
2022/02/09 20:31:40;;;;;;;32.38;18.33;;;;;;;1.01;64.49;93682.91;2050937;70;20218;-71
2022/02/09 20:34:17;;;;;;;28.80;17.20;;;;;;;1.15;65.53;93678.19;2051101;70;20151;-72
2022/02/09 20:36:43;;;;;;;35.67;19.05;;;;;;;0.85;65.83;93667.22;2050945;70;20146;-73
2022/02/09 20:39:12;;;;;;;41.50;19.95;;;;;;;0.79;65.36;93668.59;2051216;70;20146;-73
2022/02/09 20:41:38;;;;;;;38.70;19.63;;;;;;;0.83;65.45;93664.25;2051036;70;20146;-73
2022/02/09 20:44:20;;;;;;;35.47;17.42;;;;;;;0.99;64.57;93666.03;2050893;70;20196;-72
2022/02/09 20:46:46;;;;;;;33.83;17.67;;;;;;;0.86;66.31;93660.41;2050937;70;20248;-74
2022/02/09 20:49:12;;;;;;;37.10;19.95;;;;;;;0.63;66.42;93659.94;2050263;70;20261;-74
2022/02/09 20:51:38;;;;;;;51.20;22.90;;;;;;;0.77;65.27;93661.53;2053656;70;20173;-75
2022/02/09 20:54:04;;;;;;;54.78;25.15;;;;;;;0.87;64.97;93661.94;2050897;70;20139;-78
2022/02/09 20:56:31;;;;;;;49.20;23.90;;;;;;;0.78;64.70;93662.31;2048310;70;20142;-74
2022/02/09 20:59:01;;;;;;;37.95;18.55;;;;;;;0.90;64.69;93654.56;2051436;70;20154;-72
2022/02/09 21:01:40;;;;;;;38.80;19.30;;;;;;;0.87;64.23;93661.94;2051596;70;20155;-71
2022/02/09 21:04:09;;;;;;;36.80;16.67;;;;;;;1.01;63.46;93649.63;2048596;70;20150;-72
2022/02/09 21:09:33;;;;;;;21.95;10.30;;;;;;;0.94;65.53;93641.16;2051557;70;20150;-72
2022/02/09 21:14:53;;;;;;;23.60;11.15;;;;;;;0.86;64.72;93641.00;2050740;70;20150;-70
2022/02/09 21:20:27;;;;;;;36.95;18.45;;;;;;;0.12;68.43;93636.88;2050689;70;20147;-70
2022/02/09 21:52:38;;;;;;;36.20;17.52;;;;;;;0.21;66.12;93617.91;2051478;70;20130;-72
2022/02/09 22:22:17;;;;;;;30.60;12.77;;;;;;;-0.17;67.11;93605.25;2051219;70;20151;-72
2022/02/09 22:55:03;;;;;;;20.92;10.50;;;;;;;-0.12;66.46;93576.75;2050894;70;20233;-79
2022/02/09 22:58:03;;;;;;;18.05;11.02;;;;;;;-0.20;66.69;93584.13;2050825;70;20582;-74
2022/02/09 23:01:34;;;;;;;27.50;12.48;;;;;;;-0.37;67.40;93579.50;2050983;70;20186;-75
2022/02/09 23:11:52;;;;;;;21.15;11.35;;;;;;;-0.32;65.45;93569.66;2051510;70;20190;-70
2022/02/09 23:14:24;;;;;;;21.50;11.43;;;;;;;-0.38;66.60;93568.97;2051071;70;20162;-73
